Time,TemperatureF,DewpointF,PressureIn,WindDirection,WindDirectionDegrees,WindSpeedMPH,WindSpeedGustMPH,Humidity,HourlyPrecipIn,Conditions,Clouds,dailyrainin,SoftwareType,DateUTC
2013-09-20 00:00:00,83.2,79.6,29.79,SSE,157,12.0,21.0,89,0.00,,,0.00,Wunderground v.1.15,2013-09-20 06:00:00,
2013-09-20 00:05:00,83.2,79.6,29.79,SSE,162,12.0,21.0,89,0.00,,,0.00,Wunderground v.1.15,2013-09-20 06:05:00,
2013-09-20 00:10:00,83.3,79.7,29.79,SSE,163,11.0,21.0,89,0.00,,,0.00,Wunderground v.1.15,2013-09-20 06:10:00,
2013-09-20 00:15:00,83.3,80.1,29.79,SSE,159,10.0,21.0,90,0.00,,,0.00,Wunderground v.1.15,2013-09-20 06:15:00,
2013-09-20 00:20:00,82.3,79.1,29.79,SSE,156,11.0,11.0,90,0.60,,,0.05,Wunderground v.1.15,2013-09-20 06:20:00,
2013-09-20 00:25:00,82.1,78.9,29.79,SSE,156,13.0,18.0,90,0.10,,,0.05,Wunderground v.1.15,2013-09-20 06:25:00,
2013-09-20 00:30:00,82.0,79.1,29.78,SSE,155,12.0,12.0,91,0.41,,,0.08,Wunderground v.1.15,2013-09-20 06:30:00,
2013-09-20 00:35:00,82.3,79.4,29.79,SSE,160,11.0,16.0,91,0.10,,,0.08,Wunderground v.1.15,2013-09-20 06:35:00,
2013-09-20 00:40:00,82.5,79.3,29.78,SSE,167,12.0,21.0,90,0.05,,,0.08,Wunderground v.1.15,2013-09-20 06:40:00,
2013-09-20 00:45:00,82.7,79.5,29.78,SSE,156,14.0,21.0,90,0.04,,,0.08,Wunderground v.1.15,2013-09-20 06:45:00,
2013-09-20 00:50:00,82.8,79.6,29.78,SSE,165,13.0,13.0,90,0.00,,,0.08,Wunderground v.1.15,2013-09-20 06:50:00,
2013-09-20 01:00:00,82.9,79.3,29.78,SSE,157,14.0,14.0,89,0.00,,,0.08,Wunderground v.1.15,2013-09-20 07:00:00,
2013-09-20 01:05:00,82.8,79.2,29.78,SSE,156,12.0,21.0,89,0.00,,,0.08,Wunderground v.1.15,2013-09-20 07:05:00,
2013-09-20 01:10:00,82.8,79.2,29.78,SSE,157,13.0,21.0,89,0.00,,,0.08,Wunderground v.1.15,2013-09-20 07:10:00,
2013-09-20 01:15:00,82.9,79.3,29.78,SSE,156,15.0,21.0,89,0.00,,,0.08,Wunderground v.1.15,2013-09-20 07:15:00,
2013-09-20 01:20:00,82.9,79.3,29.78,SSE,153,14.0,14.0,89,0.00,,,0.08,Wunderground v.1.15,2013-09-20 07:20:00,
2013-09-20 01:25:00,83.1,79.9,29.78,SSE,157,12.0,21.0,90,0.00,,,0.08,Wunderground v.1.15,2013-09-20 07:25:00,
2013-09-20 01:30:00,82.9,79.3,29.78,SSE,157,11.0,11.0,89,0.00,,,0.08,Wunderground v.1.15,2013-09-20 07:30:00,
2013-09-20 01:35:00,82.9,79.3,29.78,SSE,156,10.0,21.0,89,0.00,,,0.08,Wunderground v.1.15,2013-09-20 07:35:00,
2013-09-20 01:40:00,83.0,79.8,29.77,SSE,153,11.0,11.0,90,0.00,,,0.08,Wunderground v.1.15,2013-09-20 07:40:00,
2013-09-20 01:45:00,82.9,79.3,29.77,SSE,156,11.0,16.0,89,0.00,,,0.08,Wunderground v.1.15,2013-09-20 07:45:00,
2013-09-20 01:50:00,82.8,79.2,29.77,SSE,160,13.0,21.0,89,0.00,,,0.08,Wunderground v.1.15,2013-09-20 07:50:00,
2013-09-20 01:55:00,82.8,79.2,29.77,SSE,156,13.0,21.0,89,0.00,,,0.08,Wunderground v.1.15,2013-09-20 07:55:00,
2013-09-20 02:00:00,82.7,79.1,29.77,SSE,156,12.0,12.0,89,0.00,,,0.08,Wunderground v.1.15,2013-09-20 08:00:00,
2013-09-20 02:05:00,82.7,78.8,29.76,SSE,156,11.0,20.0,88,0.00,,,0.08,Wunderground v.1.15,2013-09-20 08:05:00,
2013-09-20 02:10:00,82.7,79.1,29.76,SSE,153,11.0,11.0,89,0.00,,,0.08,Wunderground v.1.15,2013-09-20 08:10:00,
2013-09-20 02:15:00,82.8,79.2,29.76,SSE,156,9.0,20.0,89,0.00,,,0.08,Wunderground v.1.15,2013-09-20 08:15:00,
2013-09-20 02:20:00,82.8,79.2,29.76,SSE,156,8.0,20.0,89,0.00,,,0.08,Wunderground v.1.15,2013-09-20 08:20:00,
2013-09-20 02:25:00,82.8,79.2,29.75,SSE,155,9.0,20.0,89,0.00,,,0.08,Wunderground v.1.15,2013-09-20 08:25:00,
2013-09-20 02:30:00,82.9,79.3,29.75,SSE,155,9.0,20.0,89,0.00,,,0.08,Wunderground v.1.15,2013-09-20 08:30:00,
2013-09-20 02:35:00,82.6,78.3,29.75,SSE,156,12.0,20.0,87,0.00,,,0.08,Wunderground v.1.15,2013-09-20 08:35:00,
2013-09-20 02:40:00,82.1,77.5,29.76,SSE,155,14.0,14.0,86,0.00,,,0.08,Wunderground v.1.15,2013-09-20 08:40:00,
2013-09-20 02:45:00,81.8,77.2,29.76,SSE,156,12.0,20.0,86,0.00,,,0.08,Wunderground v.1.15,2013-09-20 08:45:00,
2013-09-20 02:50:00,81.7,77.1,29.75,SSE,156,11.0,11.0,86,0.00,,,0.08,Wunderground v.1.15,2013-09-20 08:50:00,
2013-09-20 02:55:00,81.7,77.5,29.75,SSE,156,11.0,20.0,87,0.00,,,0.08,Wunderground v.1.15,2013-09-20 08:55:00,
2013-09-20 03:00:00,81.7,77.8,29.75,SSE,156,10.0,20.0,88,0.00,,,0.08,Wunderground v.1.15,2013-09-20 09:00:00,
2013-09-20 03:05:00,81.7,78.1,29.75,SSE,156,10.0,20.0,89,0.00,,,0.08,Wunderground v.1.15,2013-09-20 09:05:00,
2013-09-20 03:10:00,81.7,78.5,29.75,SSE,156,10.0,10.0,90,0.00,,,0.08,Wunderground v.1.15,2013-09-20 09:10:00,
2013-09-20 03:15:00,81.7,78.5,29.75,SSE,155,10.0,16.0,90,0.00,,,0.08,Wunderground v.1.15,2013-09-20 09:15:00,
2013-09-20 03:20:00,81.6,78.4,29.75,SSE,155,9.0,16.0,90,0.00,,,0.08,Wunderground v.1.15,2013-09-20 09:20:00,
2013-09-20 03:25:00,81.6,78.4,29.75,SSE,157,10.0,16.0,90,0.00,,,0.08,Wunderground v.1.15,2013-09-20 09:25:00,
2013-09-20 03:30:00,81.7,78.5,29.75,SSE,155,9.0,9.0,90,0.00,,,0.08,Wunderground v.1.15,2013-09-20 09:30:00,
2013-09-20 03:35:00,81.7,78.1,29.75,SSE,156,9.0,10.0,89,0.00,,,0.08,Wunderground v.1.15,2013-09-20 09:35:00,
2013-09-20 03:40:00,81.7,78.1,29.74,SSE,155,8.0,8.0,89,0.00,,,0.08,Wunderground v.1.15,2013-09-20 09:40:00,
2013-09-20 03:45:00,81.8,78.2,29.74,SSE,155,9.0,11.0,89,0.00,,,0.08,Wunderground v.1.15,2013-09-20 09:45:00,
2013-09-20 03:50:00,82.1,78.5,29.74,SSE,155,10.0,10.0,89,0.00,,,0.08,Wunderground v.1.15,2013-09-20 09:50:00,
2013-09-20 03:55:00,82.1,78.2,29.74,SSE,157,9.0,16.0,88,0.00,,,0.08,Wunderground v.1.15,2013-09-20 09:55:00,
2013-09-20 04:00:00,82.1,78.2,29.74,SSE,156,9.0,16.0,88,0.00,,,0.08,Wunderground v.1.15,2013-09-20 10:00:00,
2013-09-20 04:05:00,82.2,78.3,29.74,SSE,157,10.0,19.0,88,0.00,,,0.08,Wunderground v.1.15,2013-09-20 10:05:00,
2013-09-20 04:10:00,82.3,78.7,29.74,SSE,156,11.0,11.0,89,0.00,,,0.08,Wunderground v.1.15,2013-09-20 10:10:00,
2013-09-20 04:15:00,82.3,78.4,29.74,SSE,157,11.0,15.0,88,0.00,,,0.08,Wunderground v.1.15,2013-09-20 10:15:00,
2013-09-20 04:20:00,82.4,78.5,29.74,SSE,156,11.0,11.0,88,0.00,,,0.08,Wunderground v.1.15,2013-09-20 10:20:00,
2013-09-20 04:25:00,82.4,78.8,29.74,SSE,156,12.0,13.0,89,0.00,,,0.08,Wunderground v.1.15,2013-09-20 10:25:00,
2013-09-20 04:30:00,82.5,78.9,29.74,SSE,154,11.0,11.0,89,0.00,,,0.08,Wunderground v.1.15,2013-09-20 10:30:00,
2013-09-20 04:35:00,82.4,78.8,29.74,SSE,155,10.0,19.0,89,0.00,,,0.08,Wunderground v.1.15,2013-09-20 10:35:00,
2013-09-20 04:40:00,82.4,78.5,29.74,SSE,153,11.0,11.0,88,0.00,,,0.08,Wunderground v.1.15,2013-09-20 10:40:00,
2013-09-20 04:45:00,82.5,78.6,29.74,SSE,153,11.0,19.0,88,0.00,,,0.08,Wunderground v.1.15,2013-09-20 10:45:00,
2013-09-20 04:50:00,82.6,79.0,29.74,SSE,153,10.0,19.0,89,0.00,,,0.08,Wunderground v.1.15,2013-09-20 10:50:00,
2013-09-20 04:55:00,82.5,78.6,29.75,SSE,154,10.0,19.0,88,0.00,,,0.08,Wunderground v.1.15,2013-09-20 10:55:00,
2013-09-20 05:00:00,82.6,79.0,29.74,SSE,153,10.0,10.0,89,0.00,,,0.08,Wunderground v.1.15,2013-09-20 11:00:00,
2013-09-20 05:05:00,82.5,78.6,29.74,SSE,156,10.0,12.0,88,0.00,,,0.08,Wunderground v.1.15,2013-09-20 11:05:00,
2013-09-20 05:10:00,82.6,78.7,29.74,SSE,155,10.0,17.0,88,0.00,,,0.08,Wunderground v.1.15,2013-09-20 11:10:00,
2013-09-20 05:15:00,82.7,78.8,29.74,SSE,155,10.0,17.0,88,0.00,,,0.08,Wunderground v.1.15,2013-09-20 11:15:00,
2013-09-20 05:20:00,82.7,78.8,29.74,SSE,156,10.0,17.0,88,0.00,,,0.08,Wunderground v.1.15,2013-09-20 11:20:00,
2013-09-20 05:25:00,82.8,78.9,29.74,SSE,157,10.0,17.0,88,0.00,,,0.08,Wunderground v.1.15,2013-09-20 11:25:00,
2013-09-20 05:30:00,82.8,78.9,29.74,SSE,155,10.0,17.0,88,0.00,,,0.08,Wunderground v.1.15,2013-09-20 11:30:00,
2013-09-20 05:35:00,82.8,78.9,29.74,SSE,155,9.0,17.0,88,0.00,,,0.08,Wunderground v.1.15,2013-09-20 11:35:00,
2013-09-20 05:40:00,82.7,79.1,29.74,SSE,151,9.0,17.0,89,0.00,,,0.08,Wunderground v.1.15,2013-09-20 11:40:00,
2013-09-20 05:45:00,82.7,79.1,29.74,SSE,155,10.0,17.0,89,0.00,,,0.08,Wunderground v.1.15,2013-09-20 11:45:00,
2013-09-20 05:50:00,82.8,79.2,29.74,SSE,153,10.0,10.0,89,0.00,,,0.08,Wunderground v.1.15,2013-09-20 11:50:00,
2013-09-20 05:55:00,82.8,79.2,29.74,SSE,155,8.0,17.0,89,0.00,,,0.08,Wunderground v.1.15,2013-09-20 11:55:00,
2013-09-20 06:00:00,82.7,79.1,29.74,SSE,153,7.0,7.0,89,0.00,,,0.08,Wunderground v.1.15,2013-09-20 12:00:00,
2013-09-20 06:05:00,82.7,79.1,29.75,SSE,156,7.0,10.0,89,0.00,,,0.08,Wunderground v.1.15,2013-09-20 12:05:00,
2013-09-20 06:10:00,82.7,79.5,29.74,SSE,153,7.0,15.0,90,0.00,,,0.08,Wunderground v.1.15,2013-09-20 12:10:00,
2013-09-20 06:20:00,82.5,79.3,29.75,SSE,153,7.0,7.0,90,0.00,,,0.08,Wunderground v.1.15,2013-09-20 12:20:00,
2013-09-20 06:25:00,82.4,79.5,29.75,SSE,156,7.0,15.0,91,0.00,,,0.08,Wunderground v.1.15,2013-09-20 12:25:00,
2013-09-20 06:30:00,82.4,79.5,29.75,SSE,153,6.0,15.0,91,0.00,,,0.08,Wunderground v.1.15,2013-09-20 12:30:00,
2013-09-20 06:35:00,82.4,79.5,29.75,SSE,153,6.0,15.0,91,0.00,,,0.08,Wunderground v.1.15,2013-09-20 12:35:00,
2013-09-20 06:40:00,82.5,79.6,29.75,SSE,155,6.0,15.0,91,0.00,,,0.08,Wunderground v.1.15,2013-09-20 12:40:00,
2013-09-20 06:45:00,82.6,79.7,29.75,SSE,154,6.0,15.0,91,0.00,,,0.08,Wunderground v.1.15,2013-09-20 12:45:00,
2013-09-20 06:50:00,82.7,79.8,29.75,SSE,155,7.0,7.0,91,0.00,,,0.08,Wunderground v.1.15,2013-09-20 12:50:00,
2013-09-20 06:55:00,82.7,79.8,29.75,SSE,155,7.0,9.0,91,0.00,,,0.08,Wunderground v.1.15,2013-09-20 12:55:00,
2013-09-20 07:00:00,81.1,77.5,29.76,SSE,153,11.0,11.0,89,1.11,,,0.13,Wunderground v.1.15,2013-09-20 13:00:00,
2013-09-20 07:05:00,78.6,76.7,29.76,SSE,153,11.0,27.0,94,0.84,,,0.21,Wunderground v.1.15,2013-09-20 13:05:00,
2013-09-20 07:10:00,78.3,77.1,29.76,SSE,155,6.0,6.0,96,0.61,,,0.27,Wunderground v.1.15,2013-09-20 13:10:00,
2013-09-20 07:15:00,78.3,77.4,29.76,SSE,153,5.0,27.0,97,0.19,,,0.29,Wunderground v.1.15,2013-09-20 13:15:00,
2013-09-20 07:20:00,78.5,77.6,29.75,SSE,154,4.0,4.0,97,0.08,,,0.29,Wunderground v.1.15,2013-09-20 13:20:00,
2013-09-20 07:25:00,79.3,78.7,29.75,SSE,155,4.0,27.0,98,0.05,,,0.29,Wunderground v.1.15,2013-09-20 13:25:00,
2013-09-20 07:30:00,79.5,78.9,29.75,SSE,155,4.0,27.0,98,0.00,,,0.29,Wunderground v.1.15,2013-09-20 13:30:00,
2013-09-20 07:35:00,80.1,79.5,29.75,SSE,156,4.0,27.0,98,0.00,,,0.29,Wunderground v.1.15,2013-09-20 13:35:00,
2013-09-20 07:40:00,80.6,80.0,29.76,SSE,156,6.0,27.0,98,0.00,,,0.29,Wunderground v.1.15,2013-09-20 13:40:00,
2013-09-20 07:45:00,80.8,80.2,29.76,SSE,156,7.0,27.0,98,0.00,,,0.29,Wunderground v.1.15,2013-09-20 13:45:00,
2013-09-20 07:50:00,80.7,79.8,29.76,SSE,156,8.0,27.0,97,0.00,,,0.29,Wunderground v.1.15,2013-09-20 13:50:00,
2013-09-20 07:55:00,80.6,79.7,29.76,SSE,150,10.0,27.0,97,0.00,,,0.29,Wunderground v.1.15,2013-09-20 13:55:00,
2013-09-20 08:00:00,80.9,80.0,29.76,SSE,159,9.0,27.0,97,0.00,,,0.29,Wunderground v.1.15,2013-09-20 14:00:00,
2013-09-20 08:05:00,80.9,80.0,29.76,SSE,158,8.0,27.0,97,0.00,,,0.29,Wunderground v.1.15,2013-09-20 14:05:00,
2013-09-20 08:10:00,80.8,79.6,29.76,SSE,156,9.0,9.0,96,0.00,,,0.29,Wunderground v.1.15,2013-09-20 14:10:00,
2013-09-20 08:15:00,81.0,80.1,29.76,SSE,156,8.0,17.0,97,0.00,,,0.29,Wunderground v.1.15,2013-09-20 14:15:00,
2013-09-20 08:20:00,81.0,79.8,29.76,SSE,160,8.0,8.0,96,0.00,,,0.29,Wunderground v.1.15,2013-09-20 14:20:00,
2013-09-20 08:25:00,81.3,80.4,29.76,SSE,162,8.0,17.0,97,0.00,,,0.29,Wunderground v.1.15,2013-09-20 14:25:00,
2013-09-20 08:30:00,81.6,80.7,29.76,SSE,160,6.0,17.0,97,0.00,,,0.29,Wunderground v.1.15,2013-09-20 14:30:00,
2013-09-20 08:35:00,81.7,80.4,29.76,SSE,159,6.0,17.0,96,0.00,,,0.29,Wunderground v.1.15,2013-09-20 14:35:00,
2013-09-20 08:40:00,81.9,81.0,29.76,SSE,158,6.0,17.0,97,0.00,,,0.29,Wunderground v.1.15,2013-09-20 14:40:00,
2013-09-20 08:45:00,81.9,80.6,29.76,SSE,159,8.0,17.0,96,0.00,,,0.30,Wunderground v.1.15,2013-09-20 14:45:00,
2013-09-20 08:50:00,82.1,80.8,29.76,SSE,162,10.0,17.0,96,0.00,,,0.30,Wunderground v.1.15,2013-09-20 14:50:00,
2013-09-20 08:55:00,82.2,80.6,29.76,SSE,162,9.0,17.0,95,0.00,,,0.30,Wunderground v.1.15,2013-09-20 14:55:00,
2013-09-20 09:00:00,82.4,80.5,29.76,SSE,159,9.0,17.0,94,0.00,,,0.30,Wunderground v.1.15,2013-09-20 15:00:00,
2013-09-20 09:05:00,82.8,79.9,29.76,SSE,162,10.0,17.0,91,0.00,,,0.30,Wunderground v.1.15,2013-09-20 15:05:00,
2013-09-20 09:10:00,83.2,80.3,29.76,SSE,162,10.0,17.0,91,0.00,,,0.30,Wunderground v.1.15,2013-09-20 15:10:00,
2013-09-20 09:15:00,83.4,80.2,29.76,SSE,159,10.0,17.0,90,0.00,,,0.30,Wunderground v.1.15,2013-09-20 15:15:00,
2013-09-20 09:20:00,83.5,80.3,29.76,SSE,159,10.0,17.0,90,0.00,,,0.30,Wunderground v.1.15,2013-09-20 15:20:00,
2013-09-20 09:25:00,83.8,80.2,29.76,SSE,159,9.0,17.0,89,0.00,,,0.30,Wunderground v.1.15,2013-09-20 15:25:00,
2013-09-20 09:30:00,84.2,80.3,29.76,SSE,161,8.0,8.0,88,0.00,,,0.30,Wunderground v.1.15,2013-09-20 15:30:00,
2013-09-20 09:35:00,84.5,80.2,29.76,SSE,159,9.0,11.0,87,0.00,,,0.30,Wunderground v.1.15,2013-09-20 15:35:00,
2013-09-20 09:40:00,84.7,80.4,29.76,SSE,159,10.0,17.0,87,0.00,,,0.30,Wunderground v.1.15,2013-09-20 15:40:00,
2013-09-20 09:45:00,84.8,80.5,29.76,SSE,157,10.0,17.0,87,0.00,,,0.30,Wunderground v.1.15,2013-09-20 15:45:00,
2013-09-20 09:50:00,84.5,80.2,29.76,SSE,160,11.0,17.0,87,0.00,,,0.30,Wunderground v.1.15,2013-09-20 15:50:00,
2013-09-20 09:55:00,84.0,80.1,29.77,SSE,151,10.0,17.0,88,0.00,,,0.30,Wunderground v.1.15,2013-09-20 15:55:00,
2013-09-20 10:00:00,83.8,80.2,29.77,SSE,156,10.0,10.0,89,0.00,,,0.30,Wunderground v.1.15,2013-09-20 16:00:00,
2013-09-20 10:05:00,84.2,80.9,29.77,SSE,159,9.0,17.0,90,0.00,,,0.30,Wunderground v.1.15,2013-09-20 16:05:00,
2013-09-20 10:10:00,84.5,80.9,29.77,SSE,156,6.0,17.0,89,0.00,,,0.30,Wunderground v.1.15,2013-09-20 16:10:00,
2013-09-20 10:15:00,84.5,80.6,29.77,SSE,153,6.0,17.0,88,0.00,,,0.30,Wunderground v.1.15,2013-09-20 16:15:00,
2013-09-20 10:20:00,83.8,79.5,29.76,SSE,154,8.0,17.0,87,0.56,,,0.32,Wunderground v.1.15,2013-09-20 16:20:00,
2013-09-20 10:25:00,83.4,79.5,29.76,SSE,153,9.0,17.0,88,0.13,,,0.33,Wunderground v.1.15,2013-09-20 16:25:00,
2013-09-20 10:30:00,83.8,79.9,29.76,SSE,157,9.0,17.0,88,0.06,,,0.33,Wunderground v.1.15,2013-09-20 16:30:00,
2013-09-20 10:35:00,84.1,80.5,29.76,SSE,157,9.0,17.0,89,0.04,,,0.33,Wunderground v.1.15,2013-09-20 16:35:00,
2013-09-20 10:40:00,84.1,80.2,29.76,SSE,156,10.0,10.0,88,0.00,,,0.33,Wunderground v.1.15,2013-09-20 16:40:00,
2013-09-20 10:45:00,84.1,79.8,29.75,SSE,149,11.0,11.0,87,0.00,,,0.33,Wunderground v.1.15,2013-09-20 16:45:00,
2013-09-20 10:50:00,84.2,79.9,29.75,SSE,156,12.0,17.0,87,0.00,,,0.33,Wunderground v.1.15,2013-09-20 16:50:00,
2013-09-20 10:55:00,84.3,80.4,29.76,SSE,157,11.0,17.0,88,0.00,,,0.33,Wunderground v.1.15,2013-09-20 16:55:00,
2013-09-20 11:00:00,84.2,79.9,29.75,SSE,154,11.0,17.0,87,0.00,,,0.33,Wunderground v.1.15,2013-09-20 17:00:00,
2013-09-20 11:05:00,84.2,80.3,29.75,SSE,156,10.0,20.0,88,0.00,,,0.33,Wunderground v.1.15,2013-09-20 17:05:00,
2013-09-20 11:10:00,84.1,79.5,29.75,SSE,157,9.0,20.0,86,0.00,,,0.33,Wunderground v.1.15,2013-09-20 17:10:00,
2013-09-20 11:15:00,84.2,79.9,29.75,SSE,156,11.0,20.0,87,0.00,,,0.33,Wunderground v.1.15,2013-09-20 17:15:00,
2013-09-20 11:20:00,84.3,80.0,29.75,SSE,155,11.0,11.0,87,0.00,,,0.33,Wunderground v.1.15,2013-09-20 17:20:00,
2013-09-20 11:25:00,84.2,79.9,29.75,SSE,153,10.0,20.0,87,0.00,,,0.33,Wunderground v.1.15,2013-09-20 17:25:00,
2013-09-20 11:30:00,83.6,79.0,29.75,SSE,153,11.0,20.0,86,0.00,,,0.33,Wunderground v.1.15,2013-09-20 17:30:00,
2013-09-20 11:35:00,82.9,78.6,29.75,SSE,153,13.0,20.0,87,0.00,,,0.33,Wunderground v.1.15,2013-09-20 17:35:00,
2013-09-20 11:40:00,82.6,78.7,29.74,SSE,156,12.0,12.0,88,0.00,,,0.33,Wunderground v.1.15,2013-09-20 17:40:00,
2013-09-20 11:45:00,83.0,79.4,29.74,SSE,157,10.0,20.0,89,0.00,,,0.33,Wunderground v.1.15,2013-09-20 17:45:00,
2013-09-20 11:50:00,83.6,79.7,29.74,SSE,156,9.0,20.0,88,0.00,,,0.33,Wunderground v.1.15,2013-09-20 17:50:00,
2013-09-20 11:55:00,84.1,80.2,29.74,SSE,157,9.0,20.0,88,0.00,,,0.33,Wunderground v.1.15,2013-09-20 17:55:00,
2013-09-20 12:00:00,84.2,79.9,29.73,SSE,156,10.0,10.0,87,0.00,,,0.33,Wunderground v.1.15,2013-09-20 18:00:00,
2013-09-20 12:05:00,84.2,79.9,29.74,SSE,157,9.0,15.0,87,0.00,,,0.33,Wunderground v.1.15,2013-09-20 18:05:00,
2013-09-20 12:15:00,84.5,79.8,29.74,SSE,157,10.0,15.0,86,0.00,,,0.00,Wunderground v.1.15,2013-09-20 18:15:00,
2013-09-20 12:20:00,85.0,80.0,29.74,SSE,157,10.0,15.0,85,0.00,,,0.00,Wunderground v.1.15,2013-09-20 18:20:00,
2013-09-20 12:25:00,85.2,80.2,29.74,SSE,153,10.0,15.0,85,0.00,,,0.00,Wunderground v.1.15,2013-09-20 18:25:00,
2013-09-20 12:30:00,85.4,80.4,29.73,SSE,155,10.0,10.0,85,0.00,,,0.00,Wunderground v.1.15,2013-09-20 18:30:00,
2013-09-20 12:35:00,85.7,80.7,29.73,SSE,152,10.0,11.0,85,0.00,,,0.00,Wunderground v.1.15,2013-09-20 18:35:00,
2013-09-20 12:40:00,86.0,80.6,29.73,SSE,155,9.0,9.0,84,0.00,,,0.00,Wunderground v.1.15,2013-09-20 18:40:00,
2013-09-20 12:45:00,86.1,80.3,29.73,SSE,153,9.0,15.0,83,0.00,,,0.00,Wunderground v.1.15,2013-09-20 18:45:00,
2013-09-20 12:50:00,86.3,79.8,29.73,SSE,153,9.0,15.0,81,0.00,,,0.00,Wunderground v.1.15,2013-09-20 18:50:00,
2013-09-20 12:55:00,86.4,79.9,29.73,SSE,156,10.0,15.0,81,0.00,,,0.00,Wunderground v.1.15,2013-09-20 18:55:00,
2013-09-20 13:00:00,86.3,79.4,29.72,SSE,159,10.0,15.0,80,0.00,,,0.00,Wunderground v.1.15,2013-09-20 19:00:00,
2013-09-20 13:05:00,86.4,79.5,29.72,SSE,162,10.0,16.0,80,0.00,,,0.00,Wunderground v.1.15,2013-09-20 19:05:00,
2013-09-20 13:10:00,86.7,80.2,29.72,SSE,153,10.0,10.0,81,0.00,,,0.00,Wunderground v.1.15,2013-09-20 19:10:00,
2013-09-20 13:15:00,86.9,80.4,29.71,SSE,156,10.0,11.0,81,0.00,,,0.00,Wunderground v.1.15,2013-09-20 19:15:00,
2013-09-20 13:20:00,86.8,80.3,29.71,SSE,157,10.0,16.0,81,0.00,,,0.00,Wunderground v.1.15,2013-09-20 19:20:00,
2013-09-20 13:25:00,86.4,79.9,29.71,SSE,150,11.0,16.0,81,0.00,,,0.00,Wunderground v.1.15,2013-09-20 19:25:00,
2013-09-20 13:30:00,86.3,80.2,29.70,SSE,153,12.0,12.0,82,0.00,,,0.00,Wunderground v.1.15,2013-09-20 19:30:00,
2013-09-20 13:35:00,86.4,80.2,29.70,SSE,150,11.0,16.0,82,0.00,,,0.00,Wunderground v.1.15,2013-09-20 19:35:00,
2013-09-20 13:40:00,86.5,80.0,29.70,SSE,155,11.0,16.0,81,0.00,,,0.00,Wunderground v.1.15,2013-09-20 19:40:00,
2013-09-20 13:45:00,86.3,80.2,29.70,SSE,153,11.0,16.0,82,0.00,,,0.00,Wunderground v.1.15,2013-09-20 19:45:00,
2013-09-20 13:50:00,86.0,79.9,29.70,SSE,155,11.0,11.0,82,0.00,,,0.00,Wunderground v.1.15,2013-09-20 19:50:00,
2013-09-20 13:55:00,85.9,79.8,29.71,SSE,155,12.0,13.0,82,0.00,,,0.00,Wunderground v.1.15,2013-09-20 19:55:00,
2013-09-20 14:00:00,85.9,79.8,29.70,SSE,155,11.0,16.0,82,0.00,,,0.00,Wunderground v.1.15,2013-09-20 20:00:00,
2013-09-20 14:10:00,85.9,80.1,29.70,SSE,156,9.0,18.0,83,0.00,,,0.00,Wunderground v.1.15,2013-09-20 20:10:00,
2013-09-20 14:15:00,85.8,80.8,29.69,SSE,157,9.0,18.0,85,0.00,,,0.00,Wunderground v.1.15,2013-09-20 20:15:00,
2013-09-20 14:20:00,85.5,79.7,29.69,SSE,153,11.0,18.0,83,0.00,,,0.00,Wunderground v.1.15,2013-09-20 20:20:00,
2013-09-20 14:25:00,84.5,79.1,29.69,SSE,160,12.0,18.0,84,0.00,,,0.00,Wunderground v.1.15,2013-09-20 20:25:00,
2013-09-20 14:30:00,83.5,79.2,29.69,SSE,152,11.0,11.0,87,0.00,,,0.01,Wunderground v.1.15,2013-09-20 20:30:00,
2013-09-20 14:35:00,83.3,79.7,29.69,SSE,157,8.0,18.0,89,0.00,,,0.01,Wunderground v.1.15,2013-09-20 20:35:00,
2013-09-20 14:40:00,83.4,79.8,29.69,SSE,157,7.0,7.0,89,0.00,,,0.01,Wunderground v.1.15,2013-09-20 20:40:00,
2013-09-20 14:45:00,83.7,80.1,29.68,SSE,155,7.0,9.0,89,0.00,,,0.01,Wunderground v.1.15,2013-09-20 20:45:00,
2013-09-20 14:50:00,83.8,79.9,29.68,SSE,157,8.0,18.0,88,0.00,,,0.01,Wunderground v.1.15,2013-09-20 20:50:00,
2013-09-20 14:55:00,83.9,79.6,29.68,SSE,157,9.0,18.0,87,0.00,,,0.01,Wunderground v.1.15,2013-09-20 20:55:00,
2013-09-20 15:00:00,84.1,79.5,29.68,SSE,157,11.0,11.0,86,0.00,,,0.01,Wunderground v.1.15,2013-09-20 21:00:00,
2013-09-20 15:05:00,84.2,79.6,29.68,SSE,153,11.0,18.0,86,0.00,,,0.01,Wunderground v.1.15,2013-09-20 21:05:00,
2013-09-20 15:10:00,84.3,79.7,29.68,SSE,162,10.0,18.0,86,0.00,,,0.01,Wunderground v.1.15,2013-09-20 21:10:00,
2013-09-20 15:15:00,84.3,79.7,29.68,SSE,156,11.0,18.0,86,0.00,,,0.01,Wunderground v.1.15,2013-09-20 21:15:00,
2013-09-20 15:20:00,84.3,79.7,29.68,SSE,156,10.0,10.0,86,0.00,,,0.01,Wunderground v.1.15,2013-09-20 21:20:00,
2013-09-20 15:25:00,84.3,79.7,29.68,SSE,155,10.0,18.0,86,0.00,,,0.01,Wunderground v.1.15,2013-09-20 21:25:00,
2013-09-20 15:30:00,84.3,79.7,29.68,SSE,156,11.0,18.0,86,0.00,,,0.01,Wunderground v.1.15,2013-09-20 21:30:00,
2013-09-20 15:35:00,84.3,79.3,29.68,SSE,153,11.0,18.0,85,0.00,,,0.01,Wunderground v.1.15,2013-09-20 21:35:00,
2013-09-20 15:40:00,84.3,79.7,29.67,SSE,155,12.0,12.0,86,0.00,,,0.01,Wunderground v.1.15,2013-09-20 21:40:00,
2013-09-20 15:50:00,84.4,80.1,29.68,SSE,157,9.0,9.0,87,0.00,,,0.01,Wunderground v.1.15,2013-09-20 21:50:00,
2013-09-20 15:55:00,84.4,80.1,29.68,SSE,153,9.0,18.0,87,0.00,,,0.01,Wunderground v.1.15,2013-09-20 21:55:00,
2013-09-20 16:00:00,84.4,79.4,29.68,SSE,153,9.0,18.0,85,0.00,,,0.01,Wunderground v.1.15,2013-09-20 22:00:00,
2013-09-20 16:05:00,84.5,79.8,29.68,SSE,155,9.0,18.0,86,0.00,,,0.01,Wunderground v.1.15,2013-09-20 22:05:00,
2013-09-20 16:15:00,84.6,80.3,29.68,SSE,157,8.0,15.0,87,0.00,,,0.01,Wunderground v.1.15,2013-09-20 22:15:00,
2013-09-20 16:20:00,84.4,79.7,29.68,SSE,157,9.0,9.0,86,0.00,,,0.01,Wunderground v.1.15,2013-09-20 22:20:00,
2013-09-20 16:25:00,84.4,79.7,29.68,SSE,156,10.0,13.0,86,0.00,,,0.01,Wunderground v.1.15,2013-09-20 22:25:00,
2013-09-20 16:30:00,84.4,79.7,29.68,SSE,154,11.0,11.0,86,0.00,,,0.01,Wunderground v.1.15,2013-09-20 22:30:00,
2013-09-20 16:35:00,84.5,79.8,29.68,SSE,149,9.0,15.0,86,0.00,,,0.01,Wunderground v.1.15,2013-09-20 22:35:00,
2013-09-20 16:40:00,84.5,79.8,29.68,SSE,155,8.0,8.0,86,0.00,,,0.01,Wunderground v.1.15,2013-09-20 22:40:00,
2013-09-20 16:45:00,84.5,79.8,29.68,SSE,155,8.0,11.0,86,0.00,,,0.01,Wunderground v.1.15,2013-09-20 22:45:00,
2013-09-20 16:50:00,84.5,79.8,29.68,SSE,156,9.0,15.0,86,0.00,,,0.01,Wunderground v.1.15,2013-09-20 22:50:00,
2013-09-20 17:00:00,84.4,79.7,29.68,SSE,155,9.0,15.0,86,0.00,,,0.01,Wunderground v.1.15,2013-09-20 23:00:00,
2013-09-20 17:05:00,84.5,80.2,29.67,SSE,155,8.0,16.0,87,0.00,,,0.01,Wunderground v.1.15,2013-09-20 23:05:00,
2013-09-20 17:10:00,84.5,80.2,29.67,SSE,156,9.0,16.0,87,0.00,,,0.01,Wunderground v.1.15,2013-09-20 23:10:00,
2013-09-20 17:15:00,84.5,80.6,29.67,SSE,154,10.0,16.0,88,0.00,,,0.01,Wunderground v.1.15,2013-09-20 23:15:00,
2013-09-20 17:20:00,84.5,79.8,29.67,SSE,155,10.0,16.0,86,0.00,,,0.01,Wunderground v.1.15,2013-09-20 23:20:00,
2013-09-20 17:25:00,84.3,79.7,29.67,SSE,156,10.0,16.0,86,0.00,,,0.01,Wunderground v.1.15,2013-09-20 23:25:00,
2013-09-20 17:30:00,84.4,79.7,29.67,SSE,155,11.0,11.0,86,0.00,,,0.01,Wunderground v.1.15,2013-09-20 23:30:00,
2013-09-20 17:35:00,84.5,80.2,29.67,SSE,155,10.0,16.0,87,0.00,,,0.01,Wunderground v.1.15,2013-09-20 23:35:00,
2013-09-20 17:40:00,84.4,80.1,29.67,SSE,156,8.0,16.0,87,0.00,,,0.01,Wunderground v.1.15,2013-09-20 23:40:00,
2013-09-20 17:45:00,84.3,79.7,29.67,SSE,153,9.0,16.0,86,0.00,,,0.01,Wunderground v.1.15,2013-09-20 23:45:00,
2013-09-20 17:50:00,84.3,80.0,29.67,SSE,153,9.0,9.0,87,0.00,,,0.01,Wunderground v.1.15,2013-09-20 23:50:00,
2013-09-20 17:55:00,84.3,80.0,29.67,SSE,153,9.0,13.0,87,0.00,,,0.01,Wunderground v.1.15,2013-09-20 23:55:00,
2013-09-20 18:00:00,84.3,80.0,29.67,SSE,155,9.0,9.0,87,0.00,,,0.01,Wunderground v.1.15,2013-09-21 00:00:00,
2013-09-20 18:05:00,84.2,79.6,29.67,SSE,154,9.0,16.0,86,0.00,,,0.01,Wunderground v.1.15,2013-09-21 00:05:00,
2013-09-20 18:15:00,84.2,79.9,29.67,SSE,153,9.0,10.0,87,0.00,,,0.01,Wunderground v.1.15,2013-09-21 00:15:00,
2013-09-20 18:25:00,84.1,79.8,29.68,SSE,154,8.0,16.0,87,0.00,,,0.01,Wunderground v.1.15,2013-09-21 00:25:00,
2013-09-20 18:30:00,84.1,79.8,29.67,SSE,147,8.0,16.0,87,0.00,,,0.01,Wunderground v.1.15,2013-09-21 00:30:00,
2013-09-20 18:35:00,84.2,80.3,29.67,SSE,154,8.0,16.0,88,0.00,,,0.01,Wunderground v.1.15,2013-09-21 00:35:00,
2013-09-20 18:40:00,84.0,79.7,29.67,SSE,153,7.0,7.0,87,0.00,,,0.01,Wunderground v.1.15,2013-09-21 00:40:00,
2013-09-20 18:45:00,84.0,80.1,29.67,SSE,154,7.0,16.0,88,0.00,,,0.01,Wunderground v.1.15,2013-09-21 00:45:00,
2013-09-20 18:50:00,84.0,79.7,29.68,SSE,155,7.0,7.0,87,0.00,,,0.01,Wunderground v.1.15,2013-09-21 00:50:00,
2013-09-20 18:55:00,84.0,80.1,29.68,SSE,157,7.0,16.0,88,0.00,,,0.01,Wunderground v.1.15,2013-09-21 00:55:00,
2013-09-20 19:00:00,83.9,79.6,29.68,SSE,153,8.0,16.0,87,0.00,,,0.01,Wunderground v.1.15,2013-09-21 01:00:00,
2013-09-20 19:05:00,84.0,79.7,29.69,SSE,154,9.0,16.0,87,0.00,,,0.01,Wunderground v.1.15,2013-09-21 01:05:00,
2013-09-20 19:10:00,84.1,79.8,29.69,SSE,153,7.0,14.0,87,0.00,,,0.01,Wunderground v.1.15,2013-09-21 01:10:00,
2013-09-20 19:15:00,84.0,79.7,29.69,SSE,155,7.0,14.0,87,0.00,,,0.01,Wunderground v.1.15,2013-09-21 01:15:00,
2013-09-20 19:20:00,84.1,79.8,29.69,SSE,153,7.0,14.0,87,0.00,,,0.01,Wunderground v.1.15,2013-09-21 01:20:00,
2013-09-20 19:30:00,84.0,79.7,29.70,SSE,155,6.0,14.0,87,0.00,,,0.01,Wunderground v.1.15,2013-09-21 01:30:00,
2013-09-20 19:35:00,84.0,79.7,29.70,SSE,154,6.0,14.0,87,0.00,,,0.01,Wunderground v.1.15,2013-09-21 01:35:00,
2013-09-20 19:40:00,83.9,79.6,29.69,SSE,153,6.0,6.0,87,0.00,,,0.01,Wunderground v.1.15,2013-09-21 01:40:00,
2013-09-20 19:45:00,83.9,80.0,29.70,SSE,155,6.0,14.0,88,0.00,,,0.01,Wunderground v.1.15,2013-09-21 01:45:00,
2013-09-20 19:50:00,83.9,80.0,29.70,SSE,154,5.0,5.0,88,0.00,,,0.01,Wunderground v.1.15,2013-09-21 01:50:00,
2013-09-20 19:55:00,83.9,80.0,29.70,SSE,154,4.0,14.0,88,0.00,,,0.01,Wunderground v.1.15,2013-09-21 01:55:00,
2013-09-20 20:00:00,83.8,79.9,29.69,SSE,153,4.0,14.0,88,0.00,,,0.01,Wunderground v.1.15,2013-09-21 02:00:00,
2013-09-20 20:06:00,83.8,80.2,29.69,SSE,153,5.0,14.0,89,0.00,,,0.01,Wunderground v.1.15,2013-09-21 02:06:00,
2013-09-20 20:10:00,83.7,79.8,29.69,SSE,154,5.0,5.0,88,0.00,,,0.01,Wunderground v.1.15,2013-09-21 02:10:00,
2013-09-20 20:15:00,83.7,80.1,29.69,SSE,154,5.0,9.0,89,0.00,,,0.01,Wunderground v.1.15,2013-09-21 02:15:00,
2013-09-20 20:20:00,83.7,80.1,29.70,SSE,155,5.0,9.0,89,0.00,,,0.01,Wunderground v.1.15,2013-09-21 02:20:00,
2013-09-20 20:25:00,83.8,80.2,29.70,SSE,154,6.0,9.0,89,0.00,,,0.01,Wunderground v.1.15,2013-09-21 02:25:00,
2013-09-20 20:30:00,83.7,80.1,29.69,SSE,154,5.0,9.0,89,0.00,,,0.01,Wunderground v.1.15,2013-09-21 02:30:00,
2013-09-20 20:35:00,83.7,80.1,29.70,SSE,154,5.0,9.0,89,0.00,,,0.01,Wunderground v.1.15,2013-09-21 02:35:00,
2013-09-20 20:40:00,83.7,80.1,29.69,SSE,154,5.0,5.0,89,0.00,,,0.01,Wunderground v.1.15,2013-09-21 02:40:00,
2013-09-20 20:45:00,83.7,80.1,29.69,SSE,154,5.0,9.0,89,0.00,,,0.01,Wunderground v.1.15,2013-09-21 02:45:00,
2013-09-20 20:55:00,83.6,80.0,29.70,SSE,153,4.0,9.0,89,0.00,,,0.01,Wunderground v.1.15,2013-09-21 02:55:00,
2013-09-20 21:00:00,83.6,80.0,29.70,SSE,154,3.0,3.0,89,0.00,,,0.01,Wunderground v.1.15,2013-09-21 03:00:00,
2013-09-20 21:05:00,83.5,79.6,29.71,SSE,153,3.0,9.0,88,0.00,,,0.01,Wunderground v.1.15,2013-09-21 03:05:00,
2013-09-20 21:10:00,83.5,79.6,29.71,SSE,153,4.0,9.0,88,0.00,,,0.01,Wunderground v.1.15,2013-09-21 03:10:00,
2013-09-20 21:15:00,83.6,79.7,29.71,SSE,153,3.0,9.0,88,0.00,,,0.01,Wunderground v.1.15,2013-09-21 03:15:00,
2013-09-20 21:20:00,83.6,79.7,29.71,SSE,153,3.0,9.0,88,0.00,,,0.01,Wunderground v.1.15,2013-09-21 03:20:00,
2013-09-20 21:25:00,83.6,79.7,29.71,SSE,153,3.0,9.0,88,0.00,,,0.01,Wunderground v.1.15,2013-09-21 03:25:00,
2013-09-20 21:30:00,83.7,80.1,29.71,SSE,153,3.0,3.0,89,0.00,,,0.01,Wunderground v.1.15,2013-09-21 03:30:00,
2013-09-20 21:35:00,83.7,80.1,29.72,SSE,153,2.0,9.0,89,0.00,,,0.01,Wunderground v.1.15,2013-09-21 03:35:00,
2013-09-20 21:40:00,83.6,80.0,29.72,SSE,154,1.0,9.0,89,0.00,,,0.01,Wunderground v.1.15,2013-09-21 03:40:00,
2013-09-20 21:45:00,82.2,77.9,29.72,SSE,153,3.0,9.0,87,0.00,,,0.01,Wunderground v.1.15,2013-09-21 03:45:00,
2013-09-20 21:50:00,81.1,77.5,29.72,SSE,154,4.0,9.0,89,0.00,,,0.01,Wunderground v.1.15,2013-09-21 03:50:00,
2013-09-20 21:55:00,80.7,77.8,29.72,SSE,153,4.0,9.0,91,0.00,,,0.01,Wunderground v.1.15,2013-09-21 03:55:00,
2013-09-20 22:00:00,80.2,77.3,29.72,SSE,153,4.0,4.0,91,0.00,,,0.02,Wunderground v.1.15,2013-09-21 04:00:00,
2013-09-20 22:05:00,79.4,76.9,29.72,SSE,153,4.0,7.0,92,0.12,,,0.03,Wunderground v.1.15,2013-09-21 04:05:00,
2013-09-20 22:15:00,78.4,76.2,29.71,SSE,153,3.0,7.0,93,0.09,,,0.05,Wunderground v.1.15,2013-09-21 04:15:00,
2013-09-20 22:20:00,78.0,75.8,29.71,SSE,153,2.0,7.0,93,0.09,,,0.06,Wunderground v.1.15,2013-09-21 04:20:00,
2013-09-20 22:25:00,77.4,75.5,29.72,SSE,153,3.0,7.0,94,0.09,,,0.06,Wunderground v.1.15,2013-09-21 04:25:00,
2013-09-20 22:30:00,76.7,74.5,29.72,SSE,153,5.0,7.0,93,0.10,,,0.07,Wunderground v.1.15,2013-09-21 04:30:00,
2013-09-20 22:35:00,76.2,74.3,29.72,SSE,152,6.0,7.0,94,0.10,,,0.08,Wunderground v.1.15,2013-09-21 04:35:00,
2013-09-20 22:40:00,75.9,74.0,29.72,SSE,153,6.0,6.0,94,0.10,,,0.09,Wunderground v.1.15,2013-09-21 04:40:00,
2013-09-20 22:45:00,75.8,74.3,29.72,SSE,152,6.0,7.0,95,0.10,,,0.10,Wunderground v.1.15,2013-09-21 04:45:00,
2013-09-20 22:50:00,75.8,74.3,29.72,SSE,153,6.0,6.0,95,0.10,,,0.10,Wunderground v.1.15,2013-09-21 04:50:00,
2013-09-20 22:55:00,75.8,74.3,29.72,SSE,152,6.0,7.0,95,0.09,,,0.11,Wunderground v.1.15,2013-09-21 04:55:00,
2013-09-20 23:00:00,75.9,74.7,29.72,SSE,153,6.0,6.0,96,0.08,,,0.12,Wunderground v.1.15,2013-09-21 05:00:00,
2013-09-20 23:06:00,75.8,74.6,29.72,SSE,153,6.0,11.0,96,0.08,,,0.12,Wunderground v.1.15,2013-09-21 05:06:00,
2013-09-20 23:10:00,75.7,74.5,29.72,SSE,153,6.0,11.0,96,0.08,,,0.13,Wunderground v.1.15,2013-09-21 05:10:00,
2013-09-20 23:15:00,75.6,74.4,29.72,SSE,153,6.0,11.0,96,0.07,,,0.14,Wunderground v.1.15,2013-09-21 05:15:00,
2013-09-20 23:20:00,75.5,74.3,29.72,SSE,153,7.0,7.0,96,0.07,,,0.14,Wunderground v.1.15,2013-09-21 05:20:00,
2013-09-20 23:25:00,75.6,74.4,29.72,SSE,152,7.0,11.0,96,0.06,,,0.15,Wunderground v.1.15,2013-09-21 05:25:00,
2013-09-20 23:30:00,75.8,74.6,29.72,SSE,153,6.0,6.0,96,0.06,,,0.15,Wunderground v.1.15,2013-09-21 05:30:00,
2013-09-20 23:35:00,75.9,74.7,29.72,SSE,153,5.0,11.0,96,0.06,,,0.16,Wunderground v.1.15,2013-09-21 05:35:00,
2013-09-20 23:40:00,75.9,74.7,29.72,SSE,153,5.0,5.0,96,0.06,,,0.16,Wunderground v.1.15,2013-09-21 05:40:00,
2013-09-20 23:45:00,76.0,74.8,29.71,SSE,153,6.0,6.0,96,0.05,,,0.16,Wunderground v.1.15,2013-09-21 05:45:00,
2013-09-20 23:50:00,76.0,74.8,29.71,SSE,153,6.0,6.0,96,0.04,,,0.17,Wunderground v.1.15,2013-09-21 05:50:00,
2013-09-20 23:55:00,76.0,74.8,29.71,SSE,153,5.0,11.0,96,0.04,,,0.17,Wunderground v.1.15,2013-09-21 05:55:00,